sensor_id;sensor_type;location;lat;lon;timestamp;P1;durP1;ratioP1;P2;durP2;ratioP2
417;SDS011;49;48.530;9.200;2023-04-02T00:02:55;2.70;;;2.40;;
417;SDS011;49;48.530;9.200;2023-04-02T00:05:37;2.73;;;2.13;;
417;SDS011;49;48.530;9.200;2023-04-02T00:08:35;3.53;;;2.60;;
417;SDS011;49;48.530;9.200;2023-04-02T00:11:09;2.63;;;2.50;;
417;SDS011;49;48.530;9.200;2023-04-02T00:13:46;3.10;;;2.40;;
417;SDS011;49;48.530;9.200;2023-04-02T00:16:18;2.80;;;2.50;;
417;SDS011;49;48.530;9.200;2023-04-02T00:18:50;5.00;;;2.90;;
417;SDS011;49;48.530;9.200;2023-04-02T00:21:23;4.50;;;2.70;;
417;SDS011;49;48.530;9.200;2023-04-02T00:24:05;3.30;;;2.50;;
417;SDS011;49;48.530;9.200;2023-04-02T00:26:42;3.13;;;2.50;;
417;SDS011;49;48.530;9.200;2023-04-02T00:29:19;3.60;;;2.53;;
417;SDS011;49;48.530;9.200;2023-04-02T00:31:52;3.90;;;2.63;;
417;SDS011;49;48.530;9.200;2023-04-02T00:34:21;3.53;;;2.40;;
417;SDS011;49;48.530;9.200;2023-04-02T00:36:53;4.30;;;2.57;;
417;SDS011;49;48.530;9.200;2023-04-02T00:39:25;4.47;;;3.10;;
417;SDS011;49;48.530;9.200;2023-04-02T00:41:59;4.37;;;2.80;;
417;SDS011;49;48.530;9.200;2023-04-02T00:44:36;3.63;;;2.50;;
417;SDS011;49;48.530;9.200;2023-04-02T00:47:09;3.10;;;2.53;;
417;SDS011;49;48.530;9.200;2023-04-02T00:49:39;6.00;;;2.40;;
417;SDS011;49;48.530;9.200;2023-04-02T00:52:11;3.50;;;2.43;;
417;SDS011;49;48.530;9.200;2023-04-02T00:54:54;5.10;;;3.03;;
417;SDS011;49;48.530;9.200;2023-04-02T00:57:26;3.00;;;2.70;;
417;SDS011;49;48.530;9.200;2023-04-02T00:59:56;2.50;;;2.37;;
417;SDS011;49;48.530;9.200;2023-04-02T01:02:28;7.40;;;2.90;;
417;SDS011;49;48.530;9.200;2023-04-02T01:05:19;4.83;;;3.30;;
417;SDS011;49;48.530;9.200;2023-04-02T01:07:52;3.90;;;2.83;;
417;SDS011;49;48.530;9.200;2023-04-02T01:10:34;3.93;;;2.50;;
417;SDS011;49;48.530;9.200;2023-04-02T01:13:19;4.20;;;2.53;;
417;SDS011;49;48.530;9.200;2023-04-02T01:15:52;5.57;;;3.50;;
417;SDS011;49;48.530;9.200;2023-04-02T01:18:31;4.10;;;2.80;;
417;SDS011;49;48.530;9.200;2023-04-02T01:21:08;4.93;;;2.43;;
417;SDS011;49;48.530;9.200;2023-04-02T01:23:51;6.93;;;3.97;;
417;SDS011;49;48.530;9.200;2023-04-02T01:26:27;4.03;;;3.03;;
417;SDS011;49;48.530;9.200;2023-04-02T01:29:08;2.83;;;2.60;;
417;SDS011;49;48.530;9.200;2023-04-02T01:31:40;5.40;;;2.90;;
417;SDS011;49;48.530;9.200;2023-04-02T01:34:14;4.80;;;2.80;;
417;SDS011;49;48.530;9.200;2023-04-02T01:37:03;2.87;;;2.63;;
417;SDS011;49;48.530;9.200;2023-04-02T01:39:42;3.60;;;2.50;;
417;SDS011;49;48.530;9.200;2023-04-02T01:42:20;5.27;;;2.80;;
417;SDS011;49;48.530;9.200;2023-04-02T01:44:52;12.47;;;2.93;;
417;SDS011;49;48.530;9.200;2023-04-02T01:47:28;4.10;;;2.83;;
417;SDS011;49;48.530;9.200;2023-04-02T01:49:59;4.77;;;2.90;;
417;SDS011;49;48.530;9.200;2023-04-02T01:52:35;4.37;;;2.80;;
417;SDS011;49;48.530;9.200;2023-04-02T01:55:06;4.07;;;2.90;;
417;SDS011;49;48.530;9.200;2023-04-02T01:57:38;4.00;;;2.70;;
417;SDS011;49;48.530;9.200;2023-04-02T02:00:10;3.27;;;2.70;;
417;SDS011;49;48.530;9.200;2023-04-02T02:02:40;10.53;;;3.50;;
417;SDS011;49;48.530;9.200;2023-04-02T02:05:12;10.13;;;3.17;;
417;SDS011;49;48.530;9.200;2023-04-02T02:07:43;3.87;;;2.50;;
417;SDS011;49;48.530;9.200;2023-04-02T02:10:19;4.90;;;2.97;;
417;SDS011;49;48.530;9.200;2023-04-02T02:12:49;3.10;;;2.67;;
417;SDS011;49;48.530;9.200;2023-04-02T02:15:24;4.30;;;2.80;;
417;SDS011;49;48.530;9.200;2023-04-02T02:17:52;3.40;;;2.63;;
417;SDS011;49;48.530;9.200;2023-04-02T02:20:23;4.27;;;2.63;;
417;SDS011;49;48.530;9.200;2023-04-02T02:23:06;2.80;;;2.40;;
417;SDS011;49;48.530;9.200;2023-04-02T02:25:39;4.20;;;2.70;;
417;SDS011;49;48.530;9.200;2023-04-02T02:28:11;3.53;;;2.60;;
417;SDS011;49;48.530;9.200;2023-04-02T02:30:43;2.80;;;2.50;;
417;SDS011;49;48.530;9.200;2023-04-02T02:33:14;9.27;;;2.60;;
417;SDS011;49;48.530;9.200;2023-04-02T02:35:48;3.70;;;2.47;;
417;SDS011;49;48.530;9.200;2023-04-02T02:38:39;2.77;;;2.40;;
417;SDS011;49;48.530;9.200;2023-04-02T02:41:15;4.47;;;2.77;;
417;SDS011;49;48.530;9.200;2023-04-02T02:43:54;9.17;;;3.00;;
417;SDS011;49;48.530;9.200;2023-04-02T02:46:27;2.60;;;2.30;;
417;SDS011;49;48.530;9.200;2023-04-02T02:48:57;5.90;;;2.40;;
417;SDS011;49;48.530;9.200;2023-04-02T02:51:29;5.67;;;2.90;;
417;SDS011;49;48.530;9.200;2023-04-02T02:54:13;4.33;;;2.80;;
417;SDS011;49;48.530;9.200;2023-04-02T02:56:45;4.30;;;2.67;;
417;SDS011;49;48.530;9.200;2023-04-02T02:59:18;5.43;;;2.90;;
417;SDS011;49;48.530;9.200;2023-04-02T03:01:53;2.90;;;2.40;;
417;SDS011;49;48.530;9.200;2023-04-02T03:04:23;3.23;;;2.50;;
417;SDS011;49;48.530;9.200;2023-04-02T03:07:00;3.10;;;2.53;;
417;SDS011;49;48.530;9.200;2023-04-02T03:09:32;3.90;;;2.67;;
417;SDS011;49;48.530;9.200;2023-04-02T03:12:18;10.83;;;3.07;;
417;SDS011;49;48.530;9.200;2023-04-02T03:14:57;6.10;;;3.10;;
417;SDS011;49;48.530;9.200;2023-04-02T03:17:31;5.90;;;3.10;;
417;SDS011;49;48.530;9.200;2023-04-02T03:20:09;5.60;;;2.83;;
417;SDS011;49;48.530;9.200;2023-04-02T03:22:44;5.00;;;3.20;;
417;SDS011;49;48.530;9.200;2023-04-02T03:25:20;5.57;;;2.60;;
417;SDS011;49;48.530;9.200;2023-04-02T03:27:52;6.70;;;2.87;;
417;SDS011;49;48.530;9.200;2023-04-02T03:30:26;5.23;;;2.50;;
417;SDS011;49;48.530;9.200;2023-04-02T03:33:02;6.00;;;3.07;;
417;SDS011;49;48.530;9.200;2023-04-02T03:35:33;4.60;;;2.83;;
417;SDS011;49;48.530;9.200;2023-04-02T03:38:05;3.53;;;2.47;;
417;SDS011;49;48.530;9.200;2023-04-02T03:40:39;6.70;;;2.57;;
417;SDS011;49;48.530;9.200;2023-04-02T03:43:12;2.67;;;2.40;;
417;SDS011;49;48.530;9.200;2023-04-02T03:45:47;3.47;;;2.40;;
417;SDS011;49;48.530;9.200;2023-04-02T03:48:19;3.00;;;2.50;;
417;SDS011;49;48.530;9.200;2023-04-02T03:50:54;4.80;;;2.53;;
417;SDS011;49;48.530;9.200;2023-04-02T03:53:25;4.83;;;2.40;;
417;SDS011;49;48.530;9.200;2023-04-02T03:55:56;5.57;;;2.30;;
417;SDS011;49;48.530;9.200;2023-04-02T03:58:30;5.23;;;2.63;;
417;SDS011;49;48.530;9.200;2023-04-02T04:01:04;3.07;;;2.30;;
417;SDS011;49;48.530;9.200;2023-04-02T04:03:39;2.60;;;2.27;;
417;SDS011;49;48.530;9.200;2023-04-02T04:06:14;3.67;;;2.43;;
417;SDS011;49;48.530;9.200;2023-04-02T04:08:49;3.60;;;2.60;;
417;SDS011;49;48.530;9.200;2023-04-02T04:11:21;8.30;;;2.40;;
417;SDS011;49;48.530;9.200;2023-04-02T04:13:55;4.70;;;2.50;;
417;SDS011;49;48.530;9.200;2023-04-02T04:16:27;5.60;;;2.63;;
417;SDS011;49;48.530;9.200;2023-04-02T04:19:05;3.90;;;2.50;;
417;SDS011;49;48.530;9.200;2023-04-02T04:21:42;8.07;;;3.33;;
417;SDS011;49;48.530;9.200;2023-04-02T04:24:15;4.33;;;2.80;;
417;SDS011;49;48.530;9.200;2023-04-02T04:26:49;5.50;;;2.80;;
417;SDS011;49;48.530;9.200;2023-04-02T04:29:34;4.10;;;2.50;;
417;SDS011;49;48.530;9.200;2023-04-02T04:32:17;5.60;;;3.00;;
417;SDS011;49;48.530;9.200;2023-04-02T04:34:59;5.27;;;2.77;;
417;SDS011;49;48.530;9.200;2023-04-02T04:37:33;3.37;;;2.53;;
417;SDS011;49;48.530;9.200;2023-04-02T04:40:04;3.87;;;2.53;;
417;SDS011;49;48.530;9.200;2023-04-02T04:42:48;3.83;;;2.60;;
417;SDS011;49;48.530;9.200;2023-04-02T04:48:06;6.00;;;2.97;;
417;SDS011;49;48.530;9.200;2023-04-02T04:50:44;3.87;;;2.47;;
417;SDS011;49;48.530;9.200;2023-04-02T04:53:19;5.40;;;2.80;;
417;SDS011;49;48.530;9.200;2023-04-02T04:55:51;7.00;;;3.30;;
417;SDS011;49;48.530;9.200;2023-04-02T04:58:21;7.90;;;3.30;;
417;SDS011;49;48.530;9.200;2023-04-02T05:00:53;4.10;;;3.00;;
417;SDS011;49;48.530;9.200;2023-04-02T05:03:31;4.23;;;2.87;;
417;SDS011;49;48.530;9.200;2023-04-02T05:06:10;4.20;;;3.00;;
417;SDS011;49;48.530;9.200;2023-04-02T05:08:48;4.67;;;3.10;;
417;SDS011;49;48.530;9.200;2023-04-02T05:11:22;3.03;;;2.57;;
417;SDS011;49;48.530;9.200;2023-04-02T05:13:59;2.90;;;2.50;;
417;SDS011;49;48.530;9.200;2023-04-02T05:16:30;4.73;;;2.50;;
417;SDS011;49;48.530;9.200;2023-04-02T05:19:05;4.47;;;2.50;;
417;SDS011;49;48.530;9.200;2023-04-02T05:21:43;3.80;;;2.57;;
417;SDS011;49;48.530;9.200;2023-04-02T05:24:31;8.53;;;2.50;;
417;SDS011;49;48.530;9.200;2023-04-02T05:27:08;2.90;;;2.20;;
417;SDS011;49;48.530;9.200;2023-04-02T05:29:46;4.40;;;2.80;;
417;SDS011;49;48.530;9.200;2023-04-02T05:32:21;4.73;;;2.93;;
417;SDS011;49;48.530;9.200;2023-04-02T05:34:58;4.37;;;2.70;;
417;SDS011;49;48.530;9.200;2023-04-02T05:37:37;8.73;;;3.90;;
417;SDS011;49;48.530;9.200;2023-04-02T05:40:09;6.10;;;3.20;;
417;SDS011;49;48.530;9.200;2023-04-02T05:42:41;4.20;;;3.00;;
417;SDS011;49;48.530;9.200;2023-04-02T05:45:22;6.87;;;3.30;;
417;SDS011;49;48.530;9.200;2023-04-02T05:47:57;9.73;;;3.10;;
417;SDS011;49;48.530;9.200;2023-04-02T06:00:38;6.30;;;3.03;;
417;SDS011;49;48.530;9.200;2023-04-02T06:03:22;7.53;;;2.73;;
417;SDS011;49;48.530;9.200;2023-04-02T06:05:57;11.40;;;3.03;;
417;SDS011;49;48.530;9.200;2023-04-02T06:08:29;4.50;;;3.10;;
417;SDS011;49;48.530;9.200;2023-04-02T06:11:03;7.93;;;3.50;;
417;SDS011;49;48.530;9.200;2023-04-02T06:13:36;5.20;;;3.47;;
417;SDS011;49;48.530;9.200;2023-04-02T06:16:04;5.77;;;3.57;;
417;SDS011;49;48.530;9.200;2023-04-02T06:18:32;10.90;;;3.23;;
417;SDS011;49;48.530;9.200;2023-04-02T06:21:01;13.17;;;3.50;;
417;SDS011;49;48.530;9.200;2023-04-02T06:23:34;8.00;;;3.60;;
417;SDS011;49;48.530;9.200;2023-04-02T06:26:06;4.97;;;3.53;;
417;SDS011;49;48.530;9.200;2023-04-02T06:28:43;3.60;;;3.07;;
417;SDS011;49;48.530;9.200;2023-04-02T06:31:21;8.30;;;3.10;;
417;SDS011;49;48.530;9.200;2023-04-02T06:33:53;8.93;;;3.80;;
417;SDS011;49;48.530;9.200;2023-04-02T06:36:24;5.90;;;3.20;;
417;SDS011;49;48.530;9.200;2023-04-02T06:38:56;11.33;;;5.20;;
417;SDS011;49;48.530;9.200;2023-04-02T06:41:31;16.43;;;7.23;;
417;SDS011;49;48.530;9.200;2023-04-02T06:44:05;17.33;;;7.90;;
417;SDS011;49;48.530;9.200;2023-04-02T06:46:39;8.83;;;4.47;;
417;SDS011;49;48.530;9.200;2023-04-02T06:49:16;8.07;;;3.77;;
417;SDS011;49;48.530;9.200;2023-04-02T06:51:49;5.07;;;3.40;;
417;SDS011;49;48.530;9.200;2023-04-02T06:54:23;7.50;;;3.10;;
417;SDS011;49;48.530;9.200;2023-04-02T06:57:04;3.90;;;2.90;;
417;SDS011;49;48.530;9.200;2023-04-02T06:59:35;6.93;;;2.90;;
417;SDS011;49;48.530;9.200;2023-04-02T07:02:03;5.40;;;2.83;;
417;SDS011;49;48.530;9.200;2023-04-02T07:04:41;6.87;;;3.00;;
417;SDS011;49;48.530;9.200;2023-04-02T07:07:09;4.33;;;3.03;;
417;SDS011;49;48.530;9.200;2023-04-02T07:09:40;4.40;;;2.70;;
417;SDS011;49;48.530;9.200;2023-04-02T07:12:13;4.77;;;3.13;;
417;SDS011;49;48.530;9.200;2023-04-02T07:14:45;4.83;;;3.03;;
417;SDS011;49;48.530;9.200;2023-04-02T07:17:18;5.83;;;3.27;;
417;SDS011;49;48.530;9.200;2023-04-02T07:19:49;7.33;;;3.57;;
417;SDS011;49;48.530;9.200;2023-04-02T07:22:18;14.93;;;3.40;;
417;SDS011;49;48.530;9.200;2023-04-02T07:24:47;5.40;;;3.10;;
417;SDS011;49;48.530;9.200;2023-04-02T07:27:16;3.77;;;2.60;;
417;SDS011;49;48.530;9.200;2023-04-02T07:29:48;4.33;;;2.83;;
417;SDS011;49;48.530;9.200;2023-04-02T07:32:15;4.33;;;2.80;;
417;SDS011;49;48.530;9.200;2023-04-02T07:34:47;4.53;;;3.07;;
417;SDS011;49;48.530;9.200;2023-04-02T07:37:18;5.77;;;3.23;;
417;SDS011;49;48.530;9.200;2023-04-02T07:39:46;6.20;;;3.00;;
417;SDS011;49;48.530;9.200;2023-04-02T07:42:15;6.13;;;3.70;;
417;SDS011;49;48.530;9.200;2023-04-02T07:44:50;6.03;;;4.00;;
417;SDS011;49;48.530;9.200;2023-04-02T07:47:17;4.73;;;3.50;;
417;SDS011;49;48.530;9.200;2023-04-02T07:49:49;5.83;;;3.47;;
417;SDS011;49;48.530;9.200;2023-04-02T07:52:24;3.50;;;2.97;;
417;SDS011;49;48.530;9.200;2023-04-02T07:55:05;8.50;;;6.90;;
417;SDS011;49;48.530;9.200;2023-04-02T07:57:38;4.60;;;3.23;;
417;SDS011;49;48.530;9.200;2023-04-02T08:03:04;5.20;;;3.33;;
417;SDS011;49;48.530;9.200;2023-04-02T08:05:34;5.53;;;3.23;;
417;SDS011;49;48.530;9.200;2023-04-02T08:08:03;8.87;;;3.23;;
417;SDS011;49;48.530;9.200;2023-04-02T08:10:30;6.90;;;3.53;;
417;SDS011;49;48.530;9.200;2023-04-02T08:13:00;6.80;;;3.40;;
417;SDS011;49;48.530;9.200;2023-04-02T08:15:27;4.93;;;4.20;;
417;SDS011;49;48.530;9.200;2023-04-02T08:17:56;8.33;;;5.73;;
417;SDS011;49;48.530;9.200;2023-04-02T08:20:26;3.13;;;2.80;;
417;SDS011;49;48.530;9.200;2023-04-02T08:23:00;5.70;;;3.07;;
417;SDS011;49;48.530;9.200;2023-04-02T08:25:39;3.57;;;2.40;;
417;SDS011;49;48.530;9.200;2023-04-02T08:28:06;6.20;;;2.90;;
417;SDS011;49;48.530;9.200;2023-04-02T08:30:40;4.80;;;2.83;;
417;SDS011;49;48.530;9.200;2023-04-02T08:33:21;5.07;;;2.50;;
417;SDS011;49;48.530;9.200;2023-04-02T08:36:02;4.53;;;2.93;;
417;SDS011;49;48.530;9.200;2023-04-02T08:38:33;3.60;;;2.33;;
417;SDS011;49;48.530;9.200;2023-04-02T08:41:02;6.57;;;4.20;;
417;SDS011;49;48.530;9.200;2023-04-02T08:43:35;4.70;;;3.00;;
417;SDS011;49;48.530;9.200;2023-04-02T08:46:23;2.83;;;2.50;;
417;SDS011;49;48.530;9.200;2023-04-02T08:49:07;4.20;;;2.90;;
417;SDS011;49;48.530;9.200;2023-04-02T08:51:52;7.00;;;3.57;;
417;SDS011;49;48.530;9.200;2023-04-02T08:54:24;5.90;;;3.33;;
417;SDS011;49;48.530;9.200;2023-04-02T08:56:55;3.00;;;2.57;;
417;SDS011;49;48.530;9.200;2023-04-02T09:02:36;5.63;;;2.63;;
417;SDS011;49;48.530;9.200;2023-04-02T09:05:19;4.97;;;2.07;;
417;SDS011;49;48.530;9.200;2023-04-02T09:07:55;8.47;;;2.20;;
417;SDS011;49;48.530;9.200;2023-04-02T09:10:37;4.63;;;2.07;;
417;SDS011;49;48.530;9.200;2023-04-02T09:13:12;2.47;;;2.17;;
417;SDS011;49;48.530;9.200;2023-04-02T09:15:45;2.67;;;2.20;;
417;SDS011;49;48.530;9.200;2023-04-02T09:18:31;3.63;;;2.00;;
417;SDS011;49;48.530;9.200;2023-04-02T09:21:00;2.60;;;2.27;;
417;SDS011;49;48.530;9.200;2023-04-02T09:23:41;2.20;;;1.80;;
417;SDS011;49;48.530;9.200;2023-04-02T09:26:15;4.10;;;2.50;;
417;SDS011;49;48.530;9.200;2023-04-02T09:28:49;3.50;;;2.50;;
417;SDS011;49;48.530;9.200;2023-04-02T09:31:21;3.73;;;2.23;;
417;SDS011;49;48.530;9.200;2023-04-02T09:33:56;2.23;;;1.80;;
417;SDS011;49;48.530;9.200;2023-04-02T09:36:31;4.10;;;2.70;;
417;SDS011;49;48.530;9.200;2023-04-02T09:39:03;4.40;;;2.77;;
417;SDS011;49;48.530;9.200;2023-04-02T09:41:33;3.03;;;2.10;;
417;SDS011;49;48.530;9.200;2023-04-02T09:44:20;2.00;;;1.80;;
417;SDS011;49;48.530;9.200;2023-04-02T09:46:53;1.80;;;1.73;;
417;SDS011;49;48.530;9.200;2023-04-02T09:49:25;2.00;;;1.70;;
417;SDS011;49;48.530;9.200;2023-04-02T09:58:10;1.90;;;1.80;;
417;SDS011;49;48.530;9.200;2023-04-02T10:01:03;2.43;;;2.07;;
417;SDS011;49;48.530;9.200;2023-04-02T10:03:41;3.97;;;1.83;;
417;SDS011;49;48.530;9.200;2023-04-02T10:06:16;1.70;;;1.70;;
417;SDS011;49;48.530;9.200;2023-04-02T10:08:47;1.63;;;1.60;;
417;SDS011;49;48.530;9.200;2023-04-02T10:11:20;1.60;;;1.60;;
417;SDS011;49;48.530;9.200;2023-04-02T10:13:52;2.50;;;1.80;;
417;SDS011;49;48.530;9.200;2023-04-02T10:16:27;2.77;;;1.70;;
417;SDS011;49;48.530;9.200;2023-04-02T10:19:01;3.07;;;1.87;;
417;SDS011;49;48.530;9.200;2023-04-02T10:21:33;3.13;;;2.00;;
417;SDS011;49;48.530;9.200;2023-04-02T10:24:13;2.17;;;2.00;;
417;SDS011;49;48.530;9.200;2023-04-02T10:26:50;2.40;;;2.00;;
417;SDS011;49;48.530;9.200;2023-04-02T10:29:50;1.90;;;1.80;;
417;SDS011;49;48.530;9.200;2023-04-02T10:32:38;2.20;;;2.00;;
417;SDS011;49;48.530;9.200;2023-04-02T10:35:10;3.47;;;1.80;;
417;SDS011;49;48.530;9.200;2023-04-02T10:37:56;5.80;;;2.00;;
417;SDS011;49;48.530;9.200;2023-04-02T10:40:43;2.03;;;1.90;;
417;SDS011;49;48.530;9.200;2023-04-02T10:43:37;4.40;;;1.73;;
417;SDS011;49;48.530;9.200;2023-04-02T10:46:14;3.63;;;2.50;;
417;SDS011;49;48.530;9.200;2023-04-02T10:48:50;1.97;;;1.77;;
417;SDS011;49;48.530;9.200;2023-04-02T10:51:36;2.83;;;1.80;;
417;SDS011;49;48.530;9.200;2023-04-02T10:56:47;2.40;;;2.30;;
417;SDS011;49;48.530;9.200;2023-04-02T10:59:31;7.53;;;5.70;;
417;SDS011;49;48.530;9.200;2023-04-02T11:02:00;2.30;;;2.10;;
417;SDS011;49;48.530;9.200;2023-04-02T11:04:49;5.30;;;2.70;;
417;SDS011;49;48.530;9.200;2023-04-02T11:07:19;2.10;;;1.70;;
417;SDS011;49;48.530;9.200;2023-04-02T11:09:51;4.87;;;1.70;;
417;SDS011;49;48.530;9.200;2023-04-02T11:12:25;1.67;;;1.53;;
417;SDS011;49;48.530;9.200;2023-04-02T11:15:07;1.73;;;1.70;;
417;SDS011;49;48.530;9.200;2023-04-02T11:17:42;1.90;;;1.70;;
417;SDS011;49;48.530;9.200;2023-04-02T11:23:31;1.60;;;1.60;;
417;SDS011;49;48.530;9.200;2023-04-02T11:29:14;7.23;;;2.90;;
417;SDS011;49;48.530;9.200;2023-04-02T11:32:13;1.73;;;1.60;;
417;SDS011;49;48.530;9.200;2023-04-02T11:38:00;1.90;;;1.73;;
417;SDS011;49;48.530;9.200;2023-04-02T11:40:45;1.73;;;1.70;;
417;SDS011;49;48.530;9.200;2023-04-02T11:43:47;2.57;;;1.80;;
417;SDS011;49;48.530;9.200;2023-04-02T11:49:55;2.23;;;1.80;;
417;SDS011;49;48.530;9.200;2023-04-02T11:52:34;2.40;;;1.60;;
417;SDS011;49;48.530;9.200;2023-04-02T11:55:25;3.00;;;2.10;;
417;SDS011;49;48.530;9.200;2023-04-02T11:58:10;2.23;;;2.10;;
417;SDS011;49;48.530;9.200;2023-04-02T12:10:59;2.00;;;1.60;;
417;SDS011;49;48.530;9.200;2023-04-02T12:13:48;2.77;;;2.00;;
417;SDS011;49;48.530;9.200;2023-04-02T12:16:17;2.53;;;2.00;;
417;SDS011;49;48.530;9.200;2023-04-02T12:18:51;2.43;;;2.20;;
417;SDS011;49;48.530;9.200;2023-04-02T12:21:21;2.50;;;1.90;;
417;SDS011;49;48.530;9.200;2023-04-02T12:23:57;2.03;;;1.93;;
417;SDS011;49;48.530;9.200;2023-04-02T12:26:32;2.20;;;2.00;;
417;SDS011;49;48.530;9.200;2023-04-02T12:29:16;2.07;;;1.90;;
417;SDS011;49;48.530;9.200;2023-04-02T12:31:51;2.73;;;2.27;;
417;SDS011;49;48.530;9.200;2023-04-02T12:34:20;3.33;;;2.20;;
417;SDS011;49;48.530;9.200;2023-04-02T12:36:54;3.00;;;2.40;;
417;SDS011;49;48.530;9.200;2023-04-02T12:39:27;2.50;;;2.30;;
417;SDS011;49;48.530;9.200;2023-04-02T12:44:52;3.73;;;2.47;;
417;SDS011;49;48.530;9.200;2023-04-02T12:47:24;2.77;;;2.50;;
417;SDS011;49;48.530;9.200;2023-04-02T12:49:52;4.00;;;2.97;;
417;SDS011;49;48.530;9.200;2023-04-02T12:52:29;3.30;;;2.30;;
417;SDS011;49;48.530;9.200;2023-04-02T12:54:57;2.23;;;2.07;;
417;SDS011;49;48.530;9.200;2023-04-02T12:57:37;2.33;;;2.20;;
417;SDS011;49;48.530;9.200;2023-04-02T13:03:07;2.27;;;2.17;;
417;SDS011;49;48.530;9.200;2023-04-02T13:05:43;2.57;;;2.20;;
417;SDS011;49;48.530;9.200;2023-04-02T13:08:21;2.50;;;2.10;;
417;SDS011;49;48.530;9.200;2023-04-02T13:11:00;2.90;;;2.33;;
417;SDS011;49;48.530;9.200;2023-04-02T13:13:36;3.03;;;2.40;;
417;SDS011;49;48.530;9.200;2023-04-02T13:16:07;3.03;;;2.47;;
417;SDS011;49;48.530;9.200;2023-04-02T13:19:09;3.30;;;2.70;;
417;SDS011;49;48.530;9.200;2023-04-02T13:21:46;5.23;;;3.27;;
417;SDS011;49;48.530;9.200;2023-04-02T13:24:16;5.20;;;3.47;;
417;SDS011;49;48.530;9.200;2023-04-02T13:26:44;3.97;;;2.73;;
417;SDS011;49;48.530;9.200;2023-04-02T13:29:23;5.53;;;3.57;;
417;SDS011;49;48.530;9.200;2023-04-02T13:31:53;4.00;;;2.40;;
417;SDS011;49;48.530;9.200;2023-04-02T13:34:22;2.60;;;2.20;;
417;SDS011;49;48.530;9.200;2023-04-02T13:36:49;3.00;;;2.30;;
417;SDS011;49;48.530;9.200;2023-04-02T13:39:19;3.90;;;2.67;;
417;SDS011;49;48.530;9.200;2023-04-02T13:41:47;3.03;;;2.37;;
417;SDS011;49;48.530;9.200;2023-04-02T13:44:33;7.17;;;3.13;;
417;SDS011;49;48.530;9.200;2023-04-02T13:47:08;2.87;;;2.47;;
417;SDS011;49;48.530;9.200;2023-04-02T13:49:44;3.80;;;2.90;;
417;SDS011;49;48.530;9.200;2023-04-02T13:52:14;3.53;;;2.40;;
417;SDS011;49;48.530;9.200;2023-04-02T13:54:42;3.33;;;2.40;;
417;SDS011;49;48.530;9.200;2023-04-02T13:57:15;4.37;;;3.27;;
417;SDS011;49;48.530;9.200;2023-04-02T13:59:57;3.10;;;2.30;;
417;SDS011;49;48.530;9.200;2023-04-02T14:02:25;1.87;;;1.80;;
417;SDS011;49;48.530;9.200;2023-04-02T14:04:54;2.50;;;2.00;;
417;SDS011;49;48.530;9.200;2023-04-02T14:07:37;2.00;;;1.90;;
417;SDS011;49;48.530;9.200;2023-04-02T14:10:20;5.60;;;3.00;;
417;SDS011;49;48.530;9.200;2023-04-02T14:12:58;10.10;;;2.43;;
417;SDS011;49;48.530;9.200;2023-04-02T14:18:39;2.93;;;2.20;;
417;SDS011;49;48.530;9.200;2023-04-02T14:21:30;4.17;;;2.30;;
417;SDS011;49;48.530;9.200;2023-04-02T14:24:15;3.03;;;2.30;;
417;SDS011;49;48.530;9.200;2023-04-02T14:26:56;2.43;;;2.30;;
417;SDS011;49;48.530;9.200;2023-04-02T14:29:34;3.30;;;2.60;;
417;SDS011;49;48.530;9.200;2023-04-02T14:32:08;2.80;;;2.60;;
417;SDS011;49;48.530;9.200;2023-04-02T14:34:45;3.27;;;2.50;;
417;SDS011;49;48.530;9.200;2023-04-02T14:37:25;5.60;;;2.30;;
417;SDS011;49;48.530;9.200;2023-04-02T14:40:01;3.63;;;2.67;;
417;SDS011;49;48.530;9.200;2023-04-02T14:42:39;2.57;;;2.33;;
417;SDS011;49;48.530;9.200;2023-04-02T14:45:15;5.00;;;2.43;;
417;SDS011;49;48.530;9.200;2023-04-02T14:48:02;2.97;;;2.27;;
417;SDS011;49;48.530;9.200;2023-04-02T14:51:09;3.87;;;2.40;;
417;SDS011;49;48.530;9.200;2023-04-02T14:53:45;4.13;;;2.83;;
417;SDS011;49;48.530;9.200;2023-04-02T14:56:28;8.57;;;6.27;;
417;SDS011;49;48.530;9.200;2023-04-02T14:59:03;3.90;;;3.50;;
417;SDS011;49;48.530;9.200;2023-04-02T15:01:47;4.70;;;3.13;;
417;SDS011;49;48.530;9.200;2023-04-02T15:04:22;5.17;;;3.33;;
417;SDS011;49;48.530;9.200;2023-04-02T15:07:02;5.17;;;3.37;;
417;SDS011;49;48.530;9.200;2023-04-02T15:09:50;2.93;;;2.80;;
417;SDS011;49;48.530;9.200;2023-04-02T15:12:32;3.13;;;2.70;;
417;SDS011;49;48.530;9.200;2023-04-02T15:15:16;3.90;;;3.13;;
417;SDS011;49;48.530;9.200;2023-04-02T15:17:56;3.50;;;3.40;;
417;SDS011;49;48.530;9.200;2023-04-02T15:20:34;4.97;;;3.63;;
417;SDS011;49;48.530;9.200;2023-04-02T15:23:24;3.60;;;3.00;;
417;SDS011;49;48.530;9.200;2023-04-02T15:26:01;5.80;;;4.57;;
417;SDS011;49;48.530;9.200;2023-04-02T15:28:40;5.03;;;2.63;;
417;SDS011;49;48.530;9.200;2023-04-02T15:31:18;6.03;;;3.60;;
417;SDS011;49;48.530;9.200;2023-04-02T15:33:57;4.67;;;3.60;;
417;SDS011;49;48.530;9.200;2023-04-02T15:42:22;4.37;;;3.40;;
417;SDS011;49;48.530;9.200;2023-04-02T15:45:13;5.00;;;3.07;;
417;SDS011;49;48.530;9.200;2023-04-02T15:47:59;3.07;;;2.73;;
417;SDS011;49;48.530;9.200;2023-04-02T15:50:53;3.53;;;2.90;;
417;SDS011;49;48.530;9.200;2023-04-02T15:53:42;2.50;;;2.30;;
417;SDS011;49;48.530;9.200;2023-04-02T15:56:21;2.80;;;2.63;;
417;SDS011;49;48.530;9.200;2023-04-02T15:58:59;2.63;;;2.50;;
417;SDS011;49;48.530;9.200;2023-04-02T16:01:39;2.70;;;2.50;;
417;SDS011;49;48.530;9.200;2023-04-02T16:04:24;5.30;;;3.13;;
417;SDS011;49;48.530;9.200;2023-04-02T16:07:17;3.10;;;2.83;;
417;SDS011;49;48.530;9.200;2023-04-02T16:09:52;2.60;;;2.50;;
417;SDS011;49;48.530;9.200;2023-04-02T16:12:31;3.13;;;2.93;;
417;SDS011;49;48.530;9.200;2023-04-02T16:15:03;4.30;;;3.30;;
417;SDS011;49;48.530;9.200;2023-04-02T16:17:37;3.90;;;3.40;;
417;SDS011;49;48.530;9.200;2023-04-02T16:20:15;3.13;;;2.80;;
417;SDS011;49;48.530;9.200;2023-04-02T16:22:49;3.37;;;2.73;;
417;SDS011;49;48.530;9.200;2023-04-02T16:25:25;3.20;;;2.83;;
417;SDS011;49;48.530;9.200;2023-04-02T16:27:59;3.17;;;2.93;;
417;SDS011;49;48.530;9.200;2023-04-02T16:30:37;3.00;;;2.70;;
417;SDS011;49;48.530;9.200;2023-04-02T16:33:11;5.23;;;3.80;;
417;SDS011;49;48.530;9.200;2023-04-02T16:36:02;5.60;;;4.00;;
417;SDS011;49;48.530;9.200;2023-04-02T16:38:45;3.73;;;3.40;;
417;SDS011;49;48.530;9.200;2023-04-02T16:41:24;11.53;;;3.37;;
417;SDS011;49;48.530;9.200;2023-04-02T16:44:14;7.73;;;3.57;;
417;SDS011;49;48.530;9.200;2023-04-02T16:46:55;3.67;;;3.40;;
417;SDS011;49;48.530;9.200;2023-04-02T16:49:33;4.20;;;3.97;;
417;SDS011;49;48.530;9.200;2023-04-02T16:55:04;5.43;;;3.77;;
417;SDS011;49;48.530;9.200;2023-04-02T16:57:49;7.63;;;5.07;;
417;SDS011;49;48.530;9.200;2023-04-02T17:03:43;7.77;;;4.50;;
417;SDS011;49;48.530;9.200;2023-04-02T17:06:24;8.67;;;5.30;;
417;SDS011;49;48.530;9.200;2023-04-02T17:09:02;6.30;;;4.80;;
417;SDS011;49;48.530;9.200;2023-04-02T17:11:35;5.73;;;4.33;;
417;SDS011;49;48.530;9.200;2023-04-02T17:14:11;5.20;;;4.27;;
417;SDS011;49;48.530;9.200;2023-04-02T17:16:49;9.43;;;4.80;;
417;SDS011;49;48.530;9.200;2023-04-02T17:19:25;7.03;;;5.10;;
417;SDS011;49;48.530;9.200;2023-04-02T17:21:55;4.73;;;4.30;;
417;SDS011;49;48.530;9.200;2023-04-02T17:24:25;6.93;;;3.90;;
417;SDS011;49;48.530;9.200;2023-04-02T17:26:56;6.27;;;4.37;;
417;SDS011;49;48.530;9.200;2023-04-02T17:29:33;8.20;;;4.50;;
417;SDS011;49;48.530;9.200;2023-04-02T17:32:04;5.47;;;4.00;;
417;SDS011;49;48.530;9.200;2023-04-02T17:34:41;7.20;;;3.97;;
417;SDS011;49;48.530;9.200;2023-04-02T17:37:14;4.93;;;4.20;;
417;SDS011;49;48.530;9.200;2023-04-02T17:39:49;16.13;;;4.57;;
417;SDS011;49;48.530;9.200;2023-04-02T17:42:23;4.50;;;4.27;;
417;SDS011;49;48.530;9.200;2023-04-02T17:45:01;8.50;;;3.93;;
417;SDS011;49;48.530;9.200;2023-04-02T17:47:38;5.73;;;4.30;;
417;SDS011;49;48.530;9.200;2023-04-02T17:53:04;5.53;;;4.83;;
417;SDS011;49;48.530;9.200;2023-04-02T17:55:41;3.83;;;3.60;;
417;SDS011;49;48.530;9.200;2023-04-02T17:58:22;11.73;;;4.47;;
417;SDS011;49;48.530;9.200;2023-04-02T18:01:10;7.07;;;4.80;;
417;SDS011;49;48.530;9.200;2023-04-02T18:03:47;5.23;;;3.90;;
417;SDS011;49;48.530;9.200;2023-04-02T18:06:21;5.80;;;4.13;;
417;SDS011;49;48.530;9.200;2023-04-02T18:09:01;3.80;;;3.60;;
417;SDS011;49;48.530;9.200;2023-04-02T18:11:39;5.00;;;4.70;;
417;SDS011;49;48.530;9.200;2023-04-02T18:14:22;4.53;;;3.90;;